首页
METAR-TAF:

METAR-TAF

机场 :

莫比尔, 阿拉巴马州, 美国

纬度: 30-41-18N, 经度: 088-14-44W, 海拔: 66米

当前天气观测

该预报发布于16分钟前的04:21 UTC
风速4节,风向北转东北
温度 12°C
湿度 100%
气压 1017 hPa
能見度: 4.0公里
阴天层高于300英尺
轻雾

METAR: KMOB 170421Z 02004KT 2 1/2SM BR OVC003 12/12 A3004 RMK AO2 T01170117

时间: 22:37 (04:37 UTC)

预报

该预报发布于5小时和17分钟前的23:20 UTC
预报有效从17日的 00点(UTC)到 17日的 24点(UTC)
风速6节,风向北转东北
能見度: 10公里
阴天层高于400英尺
短暂存在
从 17日的 02点(UTC)到 17日的 06点(UTC)
能見度: 3.2公里
阴天层高于300英尺
轻雾
从 17日的 0600点(UTC)
风速4节,风向东北
能見度: 1.6公里
阴天层高于300英尺
轻雾
短暂存在
从 17日的 08点(UTC)到 17日的 12点(UTC)
能見度: 0.4公里
阴天层高于100英尺
从 17日的 1600点(UTC)
风速4节,风向东转东南
能見度: 8.0公里
多云层高于300英尺
轻雾
从 17日的 2000点(UTC)
风速6节,风向
能見度: 10公里
阴天层高于1500英尺

TAF: KMOB 162320Z 1700/1724 03006KT P6SM OVC004 TEMPO 1702/1706 2SM BR OVC003 FM170600 04004KT 1SM BR OVC003 TEMPO 1708/1712 1/4SM FG OVC001 FM171600 12004KT 5SM BR BKN003 FM172000 19006KT P6SM OVC015

超过4000个机场的气象观测和天气预报(METAR&TAF报告)。

可查询的气象台以黄色和红色小点在地图上表示。

将鼠标移到小点上方,可查看气象台名称。

然后点击查看天气观测和预报。

如需切换地图:点击带黑十字的绿色按钮放大地图;点击带横线的绿色按钮缩小地图;或者点击绿色箭头查看邻近地区的地图。


METAR-TAF: